createdAt,value
2023-05-07T00:01:41.719Z,53.62
2023-05-07T00:04:08.764Z,53.59
2023-05-07T00:06:35.835Z,53.58
2023-05-07T00:09:02.905Z,53.63
2023-05-07T00:11:29.769Z,53.67
2023-05-07T00:13:56.668Z,53.72
2023-05-07T00:16:23.574Z,53.82
2023-05-07T00:18:50.609Z,54.06
2023-05-07T00:21:17.534Z,53.75
2023-05-07T00:23:44.355Z,53.99
2023-05-07T00:26:11.176Z,54.53
2023-05-07T00:28:38.414Z,54.49
2023-05-07T00:31:05.364Z,54.75
2023-05-07T00:33:32.306Z,54.63
2023-05-07T00:35:59.221Z,54.89
2023-05-07T00:38:26.428Z,54.80
2023-05-07T00:40:53.365Z,54.76
2023-05-07T00:43:20.239Z,54.61
2023-05-07T00:45:47.103Z,54.81
2023-05-07T00:48:14.041Z,54.97
2023-05-07T00:50:42.118Z,54.66
2023-05-07T00:53:09.270Z,54.55
2023-05-07T00:55:36.819Z,54.69
2023-05-07T00:58:03.665Z,55.08
2023-05-07T01:00:30.610Z,54.95
2023-05-07T01:02:57.720Z,55.38
2023-05-07T01:05:26.116Z,55.49
2023-05-07T01:07:53.643Z,55.29
2023-05-07T01:10:20.531Z,55.67
2023-05-07T01:12:48.310Z,55.54
2023-05-07T01:15:15.594Z,55.62
2023-05-07T01:17:42.952Z,55.81
2023-05-07T01:20:15.559Z,55.69
2023-05-07T01:22:42.889Z,55.93
2023-05-07T01:25:10.349Z,56.00
2023-05-07T01:27:40.061Z,56.01
2023-05-07T01:30:08.155Z,55.98
2023-05-07T01:32:39.579Z,56.01
2023-05-07T01:35:07.387Z,56.29
2023-05-07T01:37:34.310Z,56.04
2023-05-07T01:40:02.346Z,56.22
2023-05-07T01:42:29.866Z,56.33
2023-05-07T01:44:56.872Z,56.27
2023-05-07T01:47:23.807Z,56.31
2023-05-07T01:49:50.768Z,56.24
2023-05-07T01:52:17.694Z,56.46
2023-05-07T01:54:44.525Z,56.40
2023-05-07T01:57:11.371Z,56.18
2023-05-07T01:59:38.704Z,56.47
2023-05-07T02:02:05.615Z,56.33
2023-05-07T02:04:32.951Z,56.54
2023-05-07T02:06:59.942Z,56.54
2023-05-07T02:09:26.947Z,56.59
2023-05-07T02:11:53.856Z,56.51
2023-05-07T02:14:21.744Z,56.79
2023-05-07T02:16:49.023Z,57.15
2023-05-07T02:19:16.771Z,57.11
2023-05-07T02:21:44.134Z,57.17
2023-05-07T02:24:11.600Z,57.44
2023-05-07T02:26:38.474Z,57.31
2023-05-07T02:29:05.361Z,57.34
2023-05-07T02:31:32.700Z,57.66
2023-05-07T02:33:59.678Z,57.51
2023-05-07T02:36:27.710Z,57.60
2023-05-07T02:39:03.837Z,57.39
2023-05-07T02:41:31.003Z,57.65
2023-05-07T02:43:57.943Z,57.56
2023-05-07T02:46:25.284Z,57.56
2023-05-07T02:48:58.822Z,57.50
2023-05-07T02:51:27.122Z,57.55
2023-05-07T02:53:56.286Z,57.37
2023-05-07T02:56:23.436Z,57.26
2023-05-07T02:58:50.398Z,56.93
2023-05-07T03:01:17.922Z,56.90
2023-05-07T03:04:05.739Z,56.97
2023-05-07T03:06:32.719Z,56.85
2023-05-07T03:08:59.699Z,56.63
2023-05-07T03:11:26.945Z,56.52
2023-05-07T03:13:53.804Z,56.11
2023-05-07T03:16:22.046Z,56.08
2023-05-07T03:18:49.212Z,56.06
2023-05-07T03:21:16.280Z,55.88
2023-05-07T03:23:43.225Z,55.58
2023-05-07T03:26:10.064Z,55.56
2023-05-07T03:28:38.188Z,55.18
2023-05-07T03:31:07.543Z,54.72
2023-05-07T03:33:35.220Z,54.38
2023-05-07T03:36:02.680Z,53.93
2023-05-07T03:38:29.839Z,53.63
2023-05-07T03:40:57.002Z,53.47
2023-05-07T03:43:23.947Z,53.27
2023-05-07T03:45:56.972Z,53.26
2023-05-07T03:48:25.953Z,53.21
2023-05-07T03:50:53.948Z,53.06
2023-05-07T03:53:21.225Z,53.23
2023-05-07T03:55:48.067Z,53.27
2023-05-07T03:58:15.053Z,53.16
2023-05-07T04:00:42.017Z,52.89
2023-05-07T04:03:15.798Z,52.51
2023-05-07T04:05:43.039Z,52.61
2023-05-07T04:08:10.168Z,52.64
2023-05-07T04:10:40.258Z,52.84
2023-05-07T04:13:09.930Z,52.47
2023-05-07T04:15:37.471Z,52.41
2023-05-07T04:18:06.562Z,52.20
2023-05-07T04:20:35.867Z,51.72
2023-05-07T04:23:03.056Z,51.65
2023-05-07T04:25:30.489Z,51.59
2023-05-07T04:28:03.032Z,51.67
2023-05-07T04:30:30.114Z,51.51
2023-05-07T04:32:57.411Z,51.13
2023-05-07T04:35:25.114Z,50.92
2023-05-07T04:37:52.390Z,50.67
2023-05-07T04:40:19.556Z,50.34
2023-05-07T04:42:46.675Z,49.97
2023-05-07T04:45:14.060Z,49.78
2023-05-07T04:47:41.931Z,50.23
2023-05-07T04:50:10.133Z,49.97
2023-05-07T04:52:37.678Z,49.26
2023-05-07T04:55:05.732Z,49.41
2023-05-07T04:57:36.155Z,49.23
2023-05-07T05:00:04.262Z,49.19
2023-05-07T05:02:32.612Z,48.74
2023-05-07T05:05:00.282Z,48.41
2023-05-07T05:07:27.240Z,48.32
2023-05-07T05:09:54.597Z,47.59
2023-05-07T05:12:21.546Z,46.90
2023-05-07T05:14:48.506Z,46.54
2023-05-07T05:17:15.898Z,46.03
2023-05-07T05:19:43.011Z,45.44
2023-05-07T05:22:09.969Z,44.22
2023-05-07T05:24:37.224Z,43.80
2023-05-07T05:27:05.095Z,42.58
2023-05-07T05:29:32.968Z,42.06
2023-05-07T05:32:00.652Z,41.84
2023-05-07T05:34:28.751Z,41.37
2023-05-07T05:36:56.695Z,41.29
2023-05-07T05:39:24.363Z,41.29
2023-05-07T05:41:51.505Z,41.35
2023-05-07T05:44:18.650Z,41.70
2023-05-07T05:46:45.773Z,41.67
2023-05-07T05:49:12.718Z,41.07
2023-05-07T05:51:40.306Z,40.65
2023-05-07T05:54:07.292Z,40.87
2023-05-07T05:56:34.441Z,40.32
2023-05-07T05:59:01.311Z,40.39
2023-05-07T06:01:28.560Z,40.37
2023-05-07T06:03:56.214Z,39.94
2023-05-07T06:06:23.159Z,39.95
2023-05-07T06:08:50.068Z,39.17
2023-05-07T06:11:21.302Z,38.91
2023-05-07T06:13:48.514Z,38.54
2023-05-07T06:16:16.488Z,38.46
2023-05-07T06:18:43.854Z,38.59
2023-05-07T06:21:11.240Z,37.97
2023-05-07T06:23:38.671Z,36.80
2023-05-07T06:26:06.162Z,36.19
2023-05-07T06:28:37.153Z,36.20
2023-05-07T06:31:33.054Z,36.48
2023-05-07T06:34:03.495Z,36.29
2023-05-07T06:36:38.266Z,36.18
2023-05-07T06:39:28.221Z,35.23
2023-05-07T06:41:55.170Z,34.95
2023-05-07T06:44:25.807Z,34.94
2023-05-07T06:47:03.130Z,35.96
2023-05-07T06:49:30.365Z,35.99
2023-05-07T06:51:57.240Z,35.85
2023-05-07T06:54:24.659Z,36.03
2023-05-07T06:56:52.552Z,35.97
2023-05-07T06:59:20.625Z,36.36
2023-05-07T07:01:48.050Z,36.37
2023-05-07T07:04:15.879Z,36.36
2023-05-07T07:06:43.463Z,37.24
2023-05-07T07:09:12.195Z,37.30
2023-05-07T07:11:39.153Z,37.07
2023-05-07T07:14:06.920Z,37.31
2023-05-07T07:16:37.118Z,37.49
2023-05-07T07:19:04.025Z,37.34
2023-05-07T07:21:31.661Z,37.62
2023-05-07T07:23:59.219Z,37.78
2023-05-07T07:26:26.476Z,38.04
2023-05-07T07:28:53.616Z,38.25
2023-05-07T07:31:21.443Z,38.27
2023-05-07T07:33:49.148Z,37.96
2023-05-07T07:36:16.635Z,37.87
2023-05-07T07:38:43.580Z,37.60
2023-05-07T07:41:10.457Z,37.46
2023-05-07T07:43:37.586Z,37.66
2023-05-07T07:46:05.156Z,38.18
2023-05-07T07:48:32.358Z,37.78
2023-05-07T07:50:59.464Z,37.13
2023-05-07T07:53:26.515Z,37.30
2023-05-07T07:55:55.080Z,37.05
2023-05-07T07:58:27.653Z,37.33
2023-05-07T08:00:57.074Z,36.88
2023-05-07T08:03:24.543Z,36.52
2023-05-07T08:05:53.754Z,37.00
2023-05-07T08:08:21.358Z,36.81
2023-05-07T08:10:51.103Z,36.42
2023-05-07T08:13:24.196Z,36.24
2023-05-07T08:15:51.167Z,36.39
2023-05-07T08:18:18.156Z,36.58
2023-05-07T08:20:45.390Z,36.54
2023-05-07T08:23:15.573Z,36.15
2023-05-07T08:25:43.646Z,35.83
2023-05-07T08:28:11.321Z,34.98
2023-05-07T08:30:38.637Z,35.35
2023-05-07T08:33:06.238Z,35.68
2023-05-07T08:35:33.443Z,36.53
2023-05-07T08:38:00.491Z,36.29
2023-05-07T08:40:27.952Z,35.90
2023-05-07T08:42:55.512Z,36.06
2023-05-07T08:45:22.778Z,35.99
2023-05-07T08:47:55.817Z,35.59
2023-05-07T08:50:23.002Z,35.92
2023-05-07T08:52:50.189Z,35.89
2023-05-07T08:55:17.363Z,35.81
2023-05-07T08:57:44.622Z,35.66
2023-05-07T09:00:12.969Z,35.59
2023-05-07T09:02:40.341Z,35.31
2023-05-07T09:05:08.760Z,35.53
2023-05-07T09:07:35.973Z,35.00
2023-05-07T09:10:05.194Z,35.05
2023-05-07T09:12:33.016Z,34.82
2023-05-07T09:15:00.038Z,34.86
2023-05-07T09:17:27.467Z,34.23
2023-05-07T09:19:54.640Z,33.98
2023-05-07T09:22:22.194Z,34.32
2023-05-07T09:24:59.581Z,34.16
2023-05-07T09:27:27.705Z,33.77
2023-05-07T09:29:55.218Z,33.95
2023-05-07T09:32:22.325Z,34.25
2023-05-07T09:34:49.721Z,33.72
2023-05-07T09:37:18.842Z,34.08
2023-05-07T09:39:48.431Z,33.90
2023-05-07T09:42:18.245Z,33.56
2023-05-07T09:44:46.114Z,33.38
2023-05-07T09:47:21.063Z,33.30
2023-05-07T09:49:50.624Z,33.22
2023-05-07T09:52:20.195Z,33.32
2023-05-07T09:54:50.950Z,33.07
2023-05-07T09:57:18.984Z,32.88
2023-05-07T09:59:46.445Z,33.17
2023-05-07T10:02:15.170Z,32.65
2023-05-07T10:04:47.513Z,32.58
2023-05-07T10:07:15.717Z,32.13
2023-05-07T10:09:44.868Z,31.99
2023-05-07T10:12:18.941Z,32.21
2023-05-07T10:14:46.804Z,31.66
2023-05-07T10:17:13.877Z,32.42
2023-05-07T10:19:42.316Z,31.68
2023-05-07T10:22:09.690Z,31.81
2023-05-07T10:24:40.736Z,32.12
2023-05-07T10:27:13.651Z,31.19
2023-05-07T10:29:50.504Z,30.96
2023-05-07T10:32:36.607Z,30.89
2023-05-07T10:35:06.305Z,31.94
2023-05-07T10:37:33.476Z,32.11
2023-05-07T10:40:00.546Z,32.18
2023-05-07T10:42:27.955Z,31.65
2023-05-07T10:44:55.619Z,31.10
2023-05-07T10:47:25.550Z,31.04
2023-05-07T10:49:56.480Z,30.32
2023-05-07T10:52:28.242Z,30.54
2023-05-07T10:55:18.879Z,29.73
2023-05-07T10:57:54.276Z,30.21
2023-05-07T11:00:38.992Z,30.99
2023-05-07T11:03:10.488Z,31.16
2023-05-07T11:05:43.162Z,30.49
2023-05-07T11:08:21.095Z,30.92
2023-05-07T11:10:58.053Z,31.19
2023-05-07T11:13:53.953Z,30.87
2023-05-07T11:16:43.559Z,30.73
2023-05-07T11:19:17.218Z,30.71
2023-05-07T11:21:47.769Z,30.88
2023-05-07T11:24:23.298Z,30.39
2023-05-07T11:26:54.653Z,30.06
2023-05-07T11:29:23.477Z,29.89
2023-05-07T11:31:55.583Z,30.01
2023-05-07T11:34:25.139Z,30.08
2023-05-07T11:36:53.017Z,30.38
2023-05-07T11:39:27.938Z,30.78
2023-05-07T11:41:54.981Z,30.21
2023-05-07T11:44:21.902Z,30.05
2023-05-07T11:46:48.775Z,30.01
2023-05-07T11:49:16.061Z,29.47
2023-05-07T11:51:43.218Z,29.84
2023-05-07T11:54:12.410Z,29.93
2023-05-07T11:56:40.127Z,30.05
2023-05-07T11:59:07.379Z,30.48
2023-05-07T12:01:36.416Z,29.68
2023-05-07T12:04:04.544Z,29.47
2023-05-07T12:06:32.171Z,29.66
2023-05-07T12:08:59.126Z,29.81
2023-05-07T12:11:27.081Z,29.94
2023-05-07T12:13:59.055Z,29.79
2023-05-07T12:16:26.500Z,30.03
2023-05-07T12:18:56.214Z,29.51
2023-05-07T12:21:23.486Z,29.44
2023-05-07T12:23:50.541Z,29.79
2023-05-07T12:26:17.490Z,29.51
2023-05-07T12:28:44.559Z,29.75
2023-05-07T12:31:11.620Z,29.45
2023-05-07T12:33:38.655Z,29.28
2023-05-07T12:36:08.753Z,29.74
2023-05-07T12:38:37.766Z,29.72
2023-05-07T12:41:04.952Z,29.50
2023-05-07T12:43:31.978Z,29.32
2023-05-07T12:46:06.071Z,29.68
2023-05-07T12:48:33.285Z,29.99
2023-05-07T12:51:01.334Z,29.53
2023-05-07T12:53:28.689Z,28.57
2023-05-07T12:55:57.030Z,28.80
2023-05-07T12:58:30.676Z,29.14
2023-05-07T13:01:01.704Z,29.70
2023-05-07T13:03:33.467Z,29.79
2023-05-07T13:06:02.102Z,29.56
2023-05-07T13:08:28.906Z,29.75
2023-05-07T13:10:56.007Z,29.83
2023-05-07T13:13:22.985Z,29.40
2023-05-07T13:15:50.077Z,29.79
2023-05-07T13:18:17.083Z,29.13
2023-05-07T13:20:44.168Z,29.53
2023-05-07T13:23:11.086Z,29.29
2023-05-07T13:25:39.216Z,29.79
2023-05-07T13:28:10.689Z,29.28
2023-05-07T13:30:38.461Z,28.97
2023-05-07T13:33:05.619Z,29.15
2023-05-07T13:35:32.632Z,29.52
2023-05-07T13:37:59.532Z,28.63
2023-05-07T13:40:26.484Z,28.93
2023-05-07T13:42:54.093Z,29.33
2023-05-07T13:45:21.152Z,28.95
2023-05-07T13:47:48.345Z,28.93
2023-05-07T13:50:15.360Z,28.78
2023-05-07T13:52:46.486Z,28.64
2023-05-07T13:55:14.077Z,28.66
2023-05-07T13:57:41.149Z,28.55
2023-05-07T14:00:09.978Z,28.53
2023-05-07T14:02:43.234Z,28.42
2023-05-07T14:05:11.264Z,28.35
2023-05-07T14:07:38.360Z,28.47
2023-05-07T14:10:05.881Z,28.40
2023-05-07T14:12:33.784Z,28.31
2023-05-07T14:15:01.026Z,28.81
2023-05-07T14:17:28.377Z,28.93
2023-05-07T14:19:55.617Z,28.62
2023-05-07T14:22:23.630Z,29.16
2023-05-07T14:25:05.377Z,29.14
2023-05-07T14:27:33.115Z,28.92
2023-05-07T14:30:00.023Z,28.78
2023-05-07T14:32:27.016Z,28.88
2023-05-07T14:34:53.967Z,28.57
2023-05-07T14:37:21.249Z,28.70
2023-05-07T14:39:50.780Z,28.48
2023-05-07T14:42:18.731Z,28.43
2023-05-07T14:44:47.788Z,28.38
2023-05-07T14:47:16.241Z,28.44
2023-05-07T14:49:44.194Z,27.88
2023-05-07T14:52:11.404Z,28.50
2023-05-07T14:54:39.099Z,28.73
2023-05-07T14:57:06.897Z,28.68
2023-05-07T14:59:34.042Z,28.78
2023-05-07T15:02:02.483Z,28.31
2023-05-07T15:04:31.055Z,28.33
2023-05-07T15:06:57.999Z,28.47
2023-05-07T15:09:24.956Z,28.26
2023-05-07T15:11:52.005Z,28.00
2023-05-07T15:14:19.043Z,28.19
2023-05-07T15:16:46.885Z,28.05
2023-05-07T15:19:16.010Z,28.30
2023-05-07T15:21:43.183Z,28.32
2023-05-07T15:24:10.559Z,28.26
2023-05-07T15:26:37.572Z,28.22
2023-05-07T15:29:09.257Z,28.07
2023-05-07T15:31:38.684Z,28.23
2023-05-07T15:34:05.627Z,28.37
2023-05-07T15:36:32.578Z,28.55
2023-05-07T15:38:59.516Z,28.56
2023-05-07T15:41:26.372Z,28.51
2023-05-07T15:43:53.266Z,28.85
2023-05-07T15:46:21.299Z,28.76
2023-05-07T15:48:48.416Z,28.91
2023-05-07T15:51:15.385Z,29.28
2023-05-07T15:53:42.496Z,29.31
2023-05-07T15:56:09.512Z,28.88
2023-05-07T15:58:36.568Z,28.59
2023-05-07T16:01:04.191Z,28.26
2023-05-07T16:03:31.344Z,28.59
2023-05-07T16:05:58.436Z,28.67
2023-05-07T16:08:25.369Z,28.70
2023-05-07T16:10:52.325Z,29.01
2023-05-07T16:13:20.190Z,29.06
2023-05-07T16:15:48.110Z,28.73
2023-05-07T16:18:17.872Z,29.02
2023-05-07T16:20:45.778Z,29.23
2023-05-07T16:23:13.321Z,29.13
2023-05-07T16:25:40.282Z,29.40
2023-05-07T16:28:08.040Z,29.56
2023-05-07T16:30:34.998Z,29.60
2023-05-07T16:33:02.092Z,29.45
2023-05-07T16:35:29.002Z,29.83
2023-05-07T16:37:56.078Z,29.65
2023-05-07T16:40:23.018Z,29.79
2023-05-07T16:42:49.864Z,29.96
2023-05-07T16:45:17.387Z,30.34
2023-05-07T16:47:44.368Z,30.09
2023-05-07T16:50:11.757Z,30.48
2023-05-07T16:52:38.678Z,30.60
2023-05-07T16:55:06.344Z,30.98
2023-05-07T16:57:33.287Z,30.78
2023-05-07T17:00:00.800Z,30.97
2023-05-07T17:02:27.904Z,31.12
2023-05-07T17:04:54.955Z,31.35
2023-05-07T17:07:21.915Z,31.42
2023-05-07T17:09:48.887Z,31.61
2023-05-07T17:12:16.542Z,31.87
2023-05-07T17:14:43.680Z,32.20
2023-05-07T17:17:10.648Z,32.40
2023-05-07T17:19:39.816Z,32.60
2023-05-07T17:22:07.119Z,32.92
2023-05-07T17:24:33.960Z,32.88
2023-05-07T17:27:00.902Z,33.09
2023-05-07T17:29:27.839Z,33.31
2023-05-07T17:31:54.853Z,33.57
2023-05-07T17:34:22.866Z,33.67
2023-05-07T17:36:49.816Z,33.70
2023-05-07T17:39:16.660Z,33.96
2023-05-07T17:41:43.615Z,34.01
2023-05-07T17:44:10.569Z,34.07
2023-05-07T17:46:37.398Z,34.27
2023-05-07T17:49:04.362Z,34.32
2023-05-07T17:51:39.022Z,34.46
2023-05-07T17:54:13.032Z,34.55
2023-05-07T17:56:40.388Z,34.73
2023-05-07T17:59:07.330Z,34.75
2023-05-07T18:01:34.636Z,34.88
2023-05-07T18:04:02.245Z,34.93
2023-05-07T18:06:29.285Z,34.99
2023-05-07T18:08:56.951Z,35.11
2023-05-07T18:11:24.009Z,35.15
2023-05-07T18:13:50.859Z,34.97
2023-05-07T18:16:19.369Z,35.15
2023-05-07T18:18:47.030Z,35.04
2023-05-07T18:21:19.110Z,35.22
2023-05-07T18:23:46.744Z,35.38
2023-05-07T18:26:13.692Z,35.28
2023-05-07T18:28:40.844Z,35.35
2023-05-07T18:31:07.791Z,35.37
2023-05-07T18:33:34.745Z,35.48
2023-05-07T18:36:01.646Z,35.60
2023-05-07T18:38:28.646Z,35.64
2023-05-07T18:41:03.889Z,35.91
2023-05-07T18:43:30.849Z,35.91
2023-05-07T18:45:58.351Z,35.82
2023-05-07T18:48:25.330Z,35.92
2023-05-07T18:50:52.745Z,35.85
2023-05-07T18:53:19.771Z,36.05
2023-05-07T18:55:51.219Z,36.19
2023-05-07T18:58:20.203Z,36.35
2023-05-07T19:00:48.047Z,36.35
2023-05-07T19:03:16.064Z,36.42
2023-05-07T19:05:43.983Z,36.56
2023-05-07T19:08:11.112Z,36.61
2023-05-07T19:10:38.171Z,36.48
2023-05-07T19:13:05.157Z,36.57
2023-05-07T19:15:32.217Z,36.67
2023-05-07T19:17:59.151Z,36.57
2023-05-07T19:20:26.224Z,36.69
2023-05-07T19:22:53.223Z,36.72
2023-05-07T19:25:20.153Z,36.67
2023-05-07T19:27:48.186Z,36.65
2023-05-07T19:30:15.093Z,36.88
2023-05-07T19:32:41.990Z,36.78
2023-05-07T19:35:09.412Z,37.05
2023-05-07T19:37:36.443Z,37.03
2023-05-07T19:40:05.381Z,37.14
2023-05-07T19:42:32.463Z,37.44
2023-05-07T19:44:59.440Z,37.35
2023-05-07T19:47:26.587Z,37.45
2023-05-07T19:49:53.579Z,37.58
2023-05-07T19:52:20.502Z,37.57
2023-05-07T19:54:47.656Z,37.50
2023-05-07T19:57:15.647Z,37.71
2023-05-07T19:59:42.496Z,37.65
2023-05-07T20:02:09.632Z,37.63
2023-05-07T20:04:38.319Z,37.72
2023-05-07T20:07:05.508Z,37.77
2023-05-07T20:09:32.380Z,37.95
2023-05-07T20:11:59.371Z,37.82
2023-05-07T20:14:29.451Z,37.95
2023-05-07T20:16:56.363Z,38.10
2023-05-07T20:19:23.282Z,37.92
2023-05-07T20:21:50.377Z,38.19
2023-05-07T20:24:19.352Z,38.09
2023-05-07T20:26:46.875Z,38.13
2023-05-07T20:29:13.802Z,38.34
2023-05-07T20:31:40.807Z,38.16
2023-05-07T20:34:08.210Z,38.09
2023-05-07T20:36:36.048Z,38.08
2023-05-07T20:39:04.358Z,37.97
2023-05-07T20:41:31.391Z,37.97
2023-05-07T20:43:58.565Z,38.18
2023-05-07T20:46:27.558Z,38.08
2023-05-07T20:48:55.015Z,38.04
2023-05-07T20:51:21.846Z,38.32
2023-05-07T20:53:48.793Z,38.59
2023-05-07T20:56:16.093Z,38.32
2023-05-07T20:58:43.008Z,38.63
2023-05-07T21:01:09.980Z,38.81
2023-05-07T21:03:36.913Z,38.61
2023-05-07T21:06:04.492Z,38.80
2023-05-07T21:08:31.433Z,38.76
2023-05-07T21:10:58.389Z,38.79
2023-05-07T21:13:25.331Z,39.09
2023-05-07T21:15:52.568Z,39.02
2023-05-07T21:18:19.675Z,39.07
2023-05-07T21:20:46.592Z,39.11
2023-05-07T21:23:13.524Z,39.29
2023-05-07T21:25:41.690Z,39.35
2023-05-07T21:28:09.589Z,39.48
2023-05-07T21:30:37.054Z,39.29
2023-05-07T21:33:06.221Z,39.56
2023-05-07T21:35:36.145Z,39.55
2023-05-07T21:38:03.469Z,39.98
2023-05-07T21:40:30.365Z,39.71
2023-05-07T21:42:58.565Z,39.87
2023-05-07T21:45:25.703Z,40.05
2023-05-07T21:47:52.928Z,40.06
2023-05-07T21:50:20.217Z,40.25
2023-05-07T21:52:47.166Z,40.37
2023-05-07T21:55:14.257Z,40.07
2023-05-07T21:57:45.519Z,40.40
2023-05-07T22:00:16.443Z,40.48
2023-05-07T22:02:43.424Z,40.62
2023-05-07T22:05:10.342Z,40.79
2023-05-07T22:07:37.393Z,41.03
2023-05-07T22:10:04.897Z,41.36
2023-05-07T22:12:31.775Z,41.15
2023-05-07T22:14:58.610Z,41.49
2023-05-07T22:17:25.710Z,41.48
2023-05-07T22:19:53.037Z,41.44
2023-05-07T22:22:19.999Z,41.62
2023-05-07T22:24:47.147Z,41.61
2023-05-07T22:27:13.998Z,41.86
2023-05-07T22:29:41.145Z,41.89
2023-05-07T22:32:10.455Z,42.06
2023-05-07T22:34:38.765Z,42.33
2023-05-07T22:37:05.594Z,42.45
2023-05-07T22:39:34.561Z,42.33
2023-05-07T22:42:02.472Z,42.25
2023-05-07T22:44:29.539Z,42.71
2023-05-07T22:46:56.552Z,42.40
2023-05-07T22:49:23.505Z,42.44
2023-05-07T22:51:50.353Z,42.62
2023-05-07T22:54:17.185Z,42.87
2023-05-07T22:56:44.029Z,42.80
2023-05-07T22:59:11.004Z,42.70
2023-05-07T23:01:38.256Z,42.89
2023-05-07T23:04:05.724Z,42.71
2023-05-07T23:06:32.670Z,43.13
2023-05-07T23:08:59.634Z,42.56
2023-05-07T23:11:26.601Z,42.66
2023-05-07T23:13:53.525Z,42.76
2023-05-07T23:16:20.509Z,43.13
2023-05-07T23:18:48.455Z,43.01
2023-05-07T23:21:15.733Z,43.20
2023-05-07T23:23:43.001Z,42.91
2023-05-07T23:26:09.914Z,43.07
2023-05-07T23:28:36.763Z,42.93
2023-05-07T23:31:03.621Z,43.02
2023-05-07T23:33:30.670Z,42.84
2023-05-07T23:36:01.382Z,43.00
2023-05-07T23:38:28.255Z,43.14
2023-05-07T23:40:55.526Z,42.95
2023-05-07T23:43:22.440Z,42.79
2023-05-07T23:45:49.424Z,42.98
2023-05-07T23:48:16.476Z,43.14
2023-05-07T23:50:43.374Z,43.28
2023-05-07T23:53:10.562Z,43.22
2023-05-07T23:55:37.527Z,43.29
2023-05-07T23:58:04.467Z,43.42
